Terminal Aerodrome Forecast
Issued by NWS

Home | Current Version | Previous Version | Text Only | Print | Product List | Glossary On
Versions: 1 2 3 4 5 6 7 8 9 10 11 12 13 14 15 16
000
FTUS42 KMLB 020700 AAA
TAFFPR
TAF AMD
KFPR 020706Z 0207/0306 26003KT 4SM BR SCT003
      TEMPO 0207/0211 2SM BR BKN003
     FM021400 33005KT P6SM SCT120
     FM021800 04008KT P6SM SCT120 BKN250
     FM030000 VRB03KT P6SM FEW120 SCT250=

USA.gov is the U.S. government's official web portal to all federal, state and local government web resources and services.